CheckWX is a tool to help pilots better visualize weather data.  It is not intended as a substitute for an official pre-flight weather briefing.

17:11:42 UTC

VTUK TAF
Khon Kaen Airport
Khon Kaen, Thailand
TAF VTUK 201100Z 2012/2112 06005KT 9999 SCT030 BECMG 2021/2023 5000 BR BECMG 2104/2106 9000 NSW

Oct-20@
12:00 UTC

Oct-20 @ 12:00 UTC

Oct-20@
21:00 UTC

Oct-20 @ 21:00 UTC

TAF VTUK 201100Z 2012/2112 06005KT 9999 SCT030
Wind
  • 060° at 5 KTS
Cloud Levels
  • Scattered at 3,000' AGL

Oct-20@
21:00 UTC

Oct-20 @ 21:00 UTC

Oct-21@
04:00 UTC

Oct-21 @ 04:00 UTC

BECMG 2021/2023 5000 BR

Becoming

Becoming Conditions expected by Sun, Oct 20, 2019 @ 23:00 UTC

Wind
  • 060° at 5 KTS
Conditions
Mist
Cloud Levels
  • Scattered at 3,000' AGL

Oct-21@
04:00 UTC

Oct-21 @ 04:00 UTC

Oct-21@
12:00 UTC

Oct-21 @ 12:00 UTC

BECMG 2104/2106 9000 NSW

Becoming

Becoming Conditions expected by Mon, Oct 21, 2019 @ 06:00 UTC

Wind
  • 060° at 5 KTS
Conditions
No significant weather
Cloud Levels
  • Scattered at 3,000' AGL